sensor_id;sensor_type;location;lat;lon;timestamp;temperature;humidity
46231;DHT22;31949;51.404;-0.038;2023-06-26T00:01:42;18.40;99.90
46231;DHT22;31949;51.404;-0.038;2023-06-26T00:04:10;18.30;99.90
46231;DHT22;31949;51.404;-0.038;2023-06-26T00:06:41;18.30;99.90
46231;DHT22;31949;51.404;-0.038;2023-06-26T00:09:09;18.30;99.90
46231;DHT22;31949;51.404;-0.038;2023-06-26T00:11:36;18.30;99.90
46231;DHT22;31949;51.404;-0.038;2023-06-26T00:14:03;18.20;99.90
46231;DHT22;31949;51.404;-0.038;2023-06-26T00:16:30;18.20;99.90
46231;DHT22;31949;51.404;-0.038;2023-06-26T00:18:58;18.20;99.90
46231;DHT22;31949;51.404;-0.038;2023-06-26T00:21:26;18.20;99.90
46231;DHT22;31949;51.404;-0.038;2023-06-26T00:23:54;18.10;99.90
46231;DHT22;31949;51.404;-0.038;2023-06-26T00:26:21;18.00;99.90
46231;DHT22;31949;51.404;-0.038;2023-06-26T00:28:49;18.10;99.90
46231;DHT22;31949;51.404;-0.038;2023-06-26T00:31:16;18.00;99.90
46231;DHT22;31949;51.404;-0.038;2023-06-26T00:33:43;17.90;99.90
46231;DHT22;31949;51.404;-0.038;2023-06-26T00:36:10;17.90;99.90
46231;DHT22;31949;51.404;-0.038;2023-06-26T00:38:38;17.90;99.90
46231;DHT22;31949;51.404;-0.038;2023-06-26T00:41:05;17.90;99.90
46231;DHT22;31949;51.404;-0.038;2023-06-26T00:43:40;17.90;99.90
46231;DHT22;31949;51.404;-0.038;2023-06-26T00:46:12;17.80;99.90
46231;DHT22;31949;51.404;-0.038;2023-06-26T00:48:42;17.80;99.90
46231;DHT22;31949;51.404;-0.038;2023-06-26T00:51:12;17.70;99.90
46231;DHT22;31949;51.404;-0.038;2023-06-26T00:53:40;17.70;99.90
46231;DHT22;31949;51.404;-0.038;2023-06-26T00:56:08;17.70;99.90
46231;DHT22;31949;51.404;-0.038;2023-06-26T00:58:36;17.70;99.90
46231;DHT22;31949;51.404;-0.038;2023-06-26T01:01:03;17.60;99.90
46231;DHT22;31949;51.404;-0.038;2023-06-26T01:03:33;17.60;99.90
46231;DHT22;31949;51.404;-0.038;2023-06-26T01:06:01;17.60;99.90
46231;DHT22;31949;51.404;-0.038;2023-06-26T01:08:31;17.50;99.90
46231;DHT22;31949;51.404;-0.038;2023-06-26T01:10:59;17.60;99.90
46231;DHT22;31949;51.404;-0.038;2023-06-26T01:13:28;17.50;99.90
46231;DHT22;31949;51.404;-0.038;2023-06-26T01:15:57;17.40;99.90
46231;DHT22;31949;51.404;-0.038;2023-06-26T01:18:26;17.50;99.90
46231;DHT22;31949;51.404;-0.038;2023-06-26T01:20:53;17.50;99.90
46231;DHT22;31949;51.404;-0.038;2023-06-26T01:23:24;17.40;99.90
46231;DHT22;31949;51.404;-0.038;2023-06-26T01:28:32;17.30;99.90
46231;DHT22;31949;51.404;-0.038;2023-06-26T01:31:02;17.30;99.90
46231;DHT22;31949;51.404;-0.038;2023-06-26T01:33:30;17.20;99.90
46231;DHT22;31949;51.404;-0.038;2023-06-26T01:35:58;17.30;99.90
46231;DHT22;31949;51.404;-0.038;2023-06-26T01:38:27;17.30;99.90
46231;DHT22;31949;51.404;-0.038;2023-06-26T01:40:56;17.30;99.90
46231;DHT22;31949;51.404;-0.038;2023-06-26T01:43:51;17.20;99.90
46231;DHT22;31949;51.404;-0.038;2023-06-26T01:46:40;17.20;99.90
46231;DHT22;31949;51.404;-0.038;2023-06-26T01:57:38;17.00;99.90
46231;DHT22;31949;51.404;-0.038;2023-06-26T02:00:06;17.00;99.90
46231;DHT22;31949;51.404;-0.038;2023-06-26T02:02:41;17.00;99.90
46231;DHT22;31949;51.404;-0.038;2023-06-26T02:05:14;17.00;99.90
46231;DHT22;31949;51.404;-0.038;2023-06-26T02:07:41;17.00;99.90
46231;DHT22;31949;51.404;-0.038;2023-06-26T02:10:09;17.00;99.90
46231;DHT22;31949;51.404;-0.038;2023-06-26T02:12:38;16.90;99.90
46231;DHT22;31949;51.404;-0.038;2023-06-26T02:15:06;16.90;99.90
46231;DHT22;31949;51.404;-0.038;2023-06-26T02:17:33;16.90;99.90
46231;DHT22;31949;51.404;-0.038;2023-06-26T02:20:01;16.90;99.90
46231;DHT22;31949;51.404;-0.038;2023-06-26T02:22:29;16.90;99.90
46231;DHT22;31949;51.404;-0.038;2023-06-26T02:24:57;16.90;99.90
46231;DHT22;31949;51.404;-0.038;2023-06-26T02:27:25;16.80;99.90
46231;DHT22;31949;51.404;-0.038;2023-06-26T02:29:53;16.70;99.90
46231;DHT22;31949;51.404;-0.038;2023-06-26T02:32:20;16.80;99.90
46231;DHT22;31949;51.404;-0.038;2023-06-26T02:34:49;16.70;99.90
46231;DHT22;31949;51.404;-0.038;2023-06-26T02:37:19;16.70;99.90
46231;DHT22;31949;51.404;-0.038;2023-06-26T02:39:46;16.60;99.90
46231;DHT22;31949;51.404;-0.038;2023-06-26T02:42:14;16.70;99.90
46231;DHT22;31949;51.404;-0.038;2023-06-26T02:44:41;16.70;99.90
46231;DHT22;31949;51.404;-0.038;2023-06-26T02:47:08;16.70;99.90
46231;DHT22;31949;51.404;-0.038;2023-06-26T02:49:40;16.60;99.90
46231;DHT22;31949;51.404;-0.038;2023-06-26T02:52:07;16.70;99.90
46231;DHT22;31949;51.404;-0.038;2023-06-26T02:54:34;16.60;99.90
46231;DHT22;31949;51.404;-0.038;2023-06-26T02:57:04;16.50;99.90
46231;DHT22;31949;51.404;-0.038;2023-06-26T02:59:34;16.50;99.90
46231;DHT22;31949;51.404;-0.038;2023-06-26T03:02:01;16.50;99.90
46231;DHT22;31949;51.404;-0.038;2023-06-26T03:04:34;16.40;99.90
46231;DHT22;31949;51.404;-0.038;2023-06-26T03:07:05;16.40;99.90
46231;DHT22;31949;51.404;-0.038;2023-06-26T03:09:32;16.30;99.90
46231;DHT22;31949;51.404;-0.038;2023-06-26T03:11:59;16.30;99.90
46231;DHT22;31949;51.404;-0.038;2023-06-26T03:14:27;16.30;99.90
46231;DHT22;31949;51.404;-0.038;2023-06-26T03:16:54;16.30;99.90
46231;DHT22;31949;51.404;-0.038;2023-06-26T03:19:26;16.30;99.90
46231;DHT22;31949;51.404;-0.038;2023-06-26T03:22:15;16.30;99.90
46231;DHT22;31949;51.404;-0.038;2023-06-26T03:24:44;16.30;99.90
46231;DHT22;31949;51.404;-0.038;2023-06-26T03:27:12;16.10;99.90
46231;DHT22;31949;51.404;-0.038;2023-06-26T03:29:43;16.00;99.90
46231;DHT22;31949;51.404;-0.038;2023-06-26T03:32:11;16.00;99.90
46231;DHT22;31949;51.404;-0.038;2023-06-26T03:34:38;16.00;99.90
46231;DHT22;31949;51.404;-0.038;2023-06-26T03:37:06;16.00;99.90
46231;DHT22;31949;51.404;-0.038;2023-06-26T03:39:33;15.90;99.90
46231;DHT22;31949;51.404;-0.038;2023-06-26T03:42:00;16.00;99.90
46231;DHT22;31949;51.404;-0.038;2023-06-26T03:44:28;16.00;99.90
46231;DHT22;31949;51.404;-0.038;2023-06-26T03:46:55;16.00;99.90
46231;DHT22;31949;51.404;-0.038;2023-06-26T03:49:23;15.90;99.90
46231;DHT22;31949;51.404;-0.038;2023-06-26T03:51:52;15.90;99.90
46231;DHT22;31949;51.404;-0.038;2023-06-26T03:54:19;15.90;99.90
46231;DHT22;31949;51.404;-0.038;2023-06-26T03:56:47;15.90;99.90
46231;DHT22;31949;51.404;-0.038;2023-06-26T03:59:15;15.90;99.90
46231;DHT22;31949;51.404;-0.038;2023-06-26T04:01:42;15.90;99.90
46231;DHT22;31949;51.404;-0.038;2023-06-26T04:04:09;15.90;99.90
46231;DHT22;31949;51.404;-0.038;2023-06-26T04:06:37;15.90;99.90
46231;DHT22;31949;51.404;-0.038;2023-06-26T04:09:04;15.90;99.90
46231;DHT22;31949;51.404;-0.038;2023-06-26T04:11:31;15.90;99.90
46231;DHT22;31949;51.404;-0.038;2023-06-26T04:13:59;15.80;99.90
46231;DHT22;31949;51.404;-0.038;2023-06-26T04:16:26;15.80;99.90
46231;DHT22;31949;51.404;-0.038;2023-06-26T04:18:53;15.90;99.90
46231;DHT22;31949;51.404;-0.038;2023-06-26T04:21:23;15.90;99.90
46231;DHT22;31949;51.404;-0.038;2023-06-26T04:23:53;15.90;99.90
46231;DHT22;31949;51.404;-0.038;2023-06-26T04:26:20;15.90;99.90
46231;DHT22;31949;51.404;-0.038;2023-06-26T04:28:47;15.90;99.90
46231;DHT22;31949;51.404;-0.038;2023-06-26T04:31:15;15.90;99.90
46231;DHT22;31949;51.404;-0.038;2023-06-26T04:33:42;15.90;99.90
46231;DHT22;31949;51.404;-0.038;2023-06-26T04:36:09;15.90;99.90
46231;DHT22;31949;51.404;-0.038;2023-06-26T04:38:38;16.00;99.90
46231;DHT22;31949;51.404;-0.038;2023-06-26T04:41:05;15.90;99.90
46231;DHT22;31949;51.404;-0.038;2023-06-26T04:43:32;15.90;99.90
46231;DHT22;31949;51.404;-0.038;2023-06-26T04:46:00;15.90;99.90
46231;DHT22;31949;51.404;-0.038;2023-06-26T04:48:27;16.00;99.90
46231;DHT22;31949;51.404;-0.038;2023-06-26T04:50:55;15.90;99.90
46231;DHT22;31949;51.404;-0.038;2023-06-26T04:53:23;15.90;99.90
46231;DHT22;31949;51.404;-0.038;2023-06-26T04:55:53;15.90;99.90
46231;DHT22;31949;51.404;-0.038;2023-06-26T04:58:20;16.00;99.90
46231;DHT22;31949;51.404;-0.038;2023-06-26T05:00:48;16.00;99.90
46231;DHT22;31949;51.404;-0.038;2023-06-26T05:03:17;16.00;99.90
46231;DHT22;31949;51.404;-0.038;2023-06-26T05:05:44;16.00;99.90
46231;DHT22;31949;51.404;-0.038;2023-06-26T05:08:21;16.00;99.90
46231;DHT22;31949;51.404;-0.038;2023-06-26T05:10:49;16.00;99.90
46231;DHT22;31949;51.404;-0.038;2023-06-26T05:13:16;16.00;99.90
46231;DHT22;31949;51.404;-0.038;2023-06-26T05:15:46;16.00;99.90
46231;DHT22;31949;51.404;-0.038;2023-06-26T05:18:14;16.10;99.90
46231;DHT22;31949;51.404;-0.038;2023-06-26T05:20:42;16.10;99.90
46231;DHT22;31949;51.404;-0.038;2023-06-26T05:23:11;16.10;99.90
46231;DHT22;31949;51.404;-0.038;2023-06-26T05:25:40;16.10;99.90
46231;DHT22;31949;51.404;-0.038;2023-06-26T05:28:08;16.20;99.90
46231;DHT22;31949;51.404;-0.038;2023-06-26T05:30:37;16.20;99.90
46231;DHT22;31949;51.404;-0.038;2023-06-26T05:33:05;16.30;99.90
46231;DHT22;31949;51.404;-0.038;2023-06-26T05:35:34;16.30;99.90
46231;DHT22;31949;51.404;-0.038;2023-06-26T05:38:03;16.30;99.90
46231;DHT22;31949;51.404;-0.038;2023-06-26T05:40:31;16.30;99.90
46231;DHT22;31949;51.404;-0.038;2023-06-26T05:42:58;16.30;99.90
46231;DHT22;31949;51.404;-0.038;2023-06-26T05:45:26;16.30;99.90
46231;DHT22;31949;51.404;-0.038;2023-06-26T05:47:53;16.30;99.90
46231;DHT22;31949;51.404;-0.038;2023-06-26T05:50:21;16.40;99.90
46231;DHT22;31949;51.404;-0.038;2023-06-26T05:52:48;16.50;99.90
46231;DHT22;31949;51.404;-0.038;2023-06-26T05:55:16;16.60;99.90
46231;DHT22;31949;51.404;-0.038;2023-06-26T05:57:43;16.60;99.90
46231;DHT22;31949;51.404;-0.038;2023-06-26T06:00:13;16.70;99.90
46231;DHT22;31949;51.404;-0.038;2023-06-26T06:02:42;16.70;99.90
46231;DHT22;31949;51.404;-0.038;2023-06-26T06:05:10;16.80;99.90
46231;DHT22;31949;51.404;-0.038;2023-06-26T06:07:37;17.00;99.90
46231;DHT22;31949;51.404;-0.038;2023-06-26T06:10:05;17.00;99.90
46231;DHT22;31949;51.404;-0.038;2023-06-26T06:12:32;17.10;99.90
46231;DHT22;31949;51.404;-0.038;2023-06-26T06:14:59;17.40;99.90
46231;DHT22;31949;51.404;-0.038;2023-06-26T06:17:26;17.50;99.90
46231;DHT22;31949;51.404;-0.038;2023-06-26T06:19:53;17.70;99.90
46231;DHT22;31949;51.404;-0.038;2023-06-26T06:22:21;18.00;99.90
46231;DHT22;31949;51.404;-0.038;2023-06-26T06:24:51;18.10;99.90
46231;DHT22;31949;51.404;-0.038;2023-06-26T06:27:18;18.40;99.90
46231;DHT22;31949;51.404;-0.038;2023-06-26T06:29:46;18.70;99.90
46231;DHT22;31949;51.404;-0.038;2023-06-26T06:32:13;18.70;99.90
46231;DHT22;31949;51.404;-0.038;2023-06-26T06:34:40;18.60;99.90
46231;DHT22;31949;51.404;-0.038;2023-06-26T06:37:07;18.60;99.90
46231;DHT22;31949;51.404;-0.038;2023-06-26T06:39:35;18.50;99.90
46231;DHT22;31949;51.404;-0.038;2023-06-26T06:42:02;18.40;99.90
46231;DHT22;31949;51.404;-0.038;2023-06-26T06:44:30;18.50;99.90
46231;DHT22;31949;51.404;-0.038;2023-06-26T06:47:00;18.50;99.90
46231;DHT22;31949;51.404;-0.038;2023-06-26T06:49:27;18.50;99.90
46231;DHT22;31949;51.404;-0.038;2023-06-26T06:51:54;18.50;99.90
46231;DHT22;31949;51.404;-0.038;2023-06-26T06:54:21;18.70;99.90
46231;DHT22;31949;51.404;-0.038;2023-06-26T06:56:49;18.70;99.90
46231;DHT22;31949;51.404;-0.038;2023-06-26T06:59:16;18.90;99.90
46231;DHT22;31949;51.404;-0.038;2023-06-26T07:01:43;19.20;99.90
46231;DHT22;31949;51.404;-0.038;2023-06-26T07:04:11;19.30;99.90
46231;DHT22;31949;51.404;-0.038;2023-06-26T07:06:38;19.60;99.90
46231;DHT22;31949;51.404;-0.038;2023-06-26T07:09:05;19.70;99.90
46231;DHT22;31949;51.404;-0.038;2023-06-26T07:11:33;19.90;99.90
46231;DHT22;31949;51.404;-0.038;2023-06-26T07:14:01;20.00;99.90
46231;DHT22;31949;51.404;-0.038;2023-06-26T07:16:28;20.20;99.90
46231;DHT22;31949;51.404;-0.038;2023-06-26T07:18:56;20.40;99.90
46231;DHT22;31949;51.404;-0.038;2023-06-26T07:21:24;20.50;99.90
46231;DHT22;31949;51.404;-0.038;2023-06-26T07:23:53;20.60;99.90
46231;DHT22;31949;51.404;-0.038;2023-06-26T07:26:21;20.80;99.90
46231;DHT22;31949;51.404;-0.038;2023-06-26T07:29:09;20.80;99.90
46231;DHT22;31949;51.404;-0.038;2023-06-26T07:31:36;20.70;99.90
46231;DHT22;31949;51.404;-0.038;2023-06-26T07:34:03;20.80;99.90
46231;DHT22;31949;51.404;-0.038;2023-06-26T07:36:30;20.90;99.90
46231;DHT22;31949;51.404;-0.038;2023-06-26T07:38:57;21.00;99.90
46231;DHT22;31949;51.404;-0.038;2023-06-26T07:41:25;21.10;99.90
46231;DHT22;31949;51.404;-0.038;2023-06-26T07:43:52;21.20;99.90
46231;DHT22;31949;51.404;-0.038;2023-06-26T07:46:19;21.40;99.90
46231;DHT22;31949;51.404;-0.038;2023-06-26T07:48:46;21.60;99.90
46231;DHT22;31949;51.404;-0.038;2023-06-26T07:51:15;21.60;99.90
46231;DHT22;31949;51.404;-0.038;2023-06-26T07:53:44;21.70;99.90
46231;DHT22;31949;51.404;-0.038;2023-06-26T07:56:11;21.60;99.90
46231;DHT22;31949;51.404;-0.038;2023-06-26T07:58:38;21.70;99.90
46231;DHT22;31949;51.404;-0.038;2023-06-26T08:01:06;21.80;99.90
46231;DHT22;31949;51.404;-0.038;2023-06-26T08:03:33;21.80;99.90
46231;DHT22;31949;51.404;-0.038;2023-06-26T08:06:02;21.90;99.90
46231;DHT22;31949;51.404;-0.038;2023-06-26T08:08:30;22.00;99.90
46231;DHT22;31949;51.404;-0.038;2023-06-26T08:10:57;21.70;99.90
46231;DHT22;31949;51.404;-0.038;2023-06-26T08:13:25;21.60;99.90
46231;DHT22;31949;51.404;-0.038;2023-06-26T08:15:52;21.80;99.90
46231;DHT22;31949;51.404;-0.038;2023-06-26T08:18:20;21.90;99.90
46231;DHT22;31949;51.404;-0.038;2023-06-26T08:20:47;21.90;99.90
46231;DHT22;31949;51.404;-0.038;2023-06-26T08:23:14;21.90;99.70
46231;DHT22;31949;51.404;-0.038;2023-06-26T08:25:41;21.80;99.40
46231;DHT22;31949;51.404;-0.038;2023-06-26T08:28:09;21.70;99.30
46231;DHT22;31949;51.404;-0.038;2023-06-26T08:30:36;21.80;99.60
46231;DHT22;31949;51.404;-0.038;2023-06-26T08:33:04;21.80;99.50
46231;DHT22;31949;51.404;-0.038;2023-06-26T08:35:31;21.80;98.90
46231;DHT22;31949;51.404;-0.038;2023-06-26T08:37:58;21.90;99.30
46231;DHT22;31949;51.404;-0.038;2023-06-26T08:40:26;21.80;99.10
46231;DHT22;31949;51.404;-0.038;2023-06-26T08:42:54;21.80;98.70
46231;DHT22;31949;51.404;-0.038;2023-06-26T08:45:21;21.70;98.30
46231;DHT22;31949;51.404;-0.038;2023-06-26T08:47:52;21.50;98.30
46231;DHT22;31949;51.404;-0.038;2023-06-26T08:50:23;21.40;98.90
46231;DHT22;31949;51.404;-0.038;2023-06-26T08:55:45;21.50;97.40
46231;DHT22;31949;51.404;-0.038;2023-06-26T08:58:13;21.70;97.30
46231;DHT22;31949;51.404;-0.038;2023-06-26T09:00:40;22.10;97.40
46231;DHT22;31949;51.404;-0.038;2023-06-26T09:03:09;22.10;97.00
46231;DHT22;31949;51.404;-0.038;2023-06-26T09:05:37;22.00;96.80
46231;DHT22;31949;51.404;-0.038;2023-06-26T09:08:05;22.10;96.50
46231;DHT22;31949;51.404;-0.038;2023-06-26T09:10:32;22.40;96.70
46231;DHT22;31949;51.404;-0.038;2023-06-26T09:13:00;22.30;96.50
46231;DHT22;31949;51.404;-0.038;2023-06-26T09:15:44;22.20;95.70
46231;DHT22;31949;51.404;-0.038;2023-06-26T09:18:12;22.10;95.60
46231;DHT22;31949;51.404;-0.038;2023-06-26T09:20:40;22.20;95.20
46231;DHT22;31949;51.404;-0.038;2023-06-26T09:23:08;22.30;95.50
46231;DHT22;31949;51.404;-0.038;2023-06-26T09:25:38;22.40;93.90
46231;DHT22;31949;51.404;-0.038;2023-06-26T09:28:08;22.50;94.40
46231;DHT22;31949;51.404;-0.038;2023-06-26T09:30:36;22.60;94.00
46231;DHT22;31949;51.404;-0.038;2023-06-26T09:33:17;22.40;94.40
46231;DHT22;31949;51.404;-0.038;2023-06-26T09:35:47;22.40;93.80
46231;DHT22;31949;51.404;-0.038;2023-06-26T09:38:14;22.60;93.90
46231;DHT22;31949;51.404;-0.038;2023-06-26T09:40:42;22.80;93.80
46231;DHT22;31949;51.404;-0.038;2023-06-26T09:43:13;22.90;94.00
46231;DHT22;31949;51.404;-0.038;2023-06-26T09:45:40;22.90;94.10
46231;DHT22;31949;51.404;-0.038;2023-06-26T09:48:08;22.60;93.80
46231;DHT22;31949;51.404;-0.038;2023-06-26T09:50:35;22.80;91.90
46231;DHT22;31949;51.404;-0.038;2023-06-26T09:53:11;22.60;93.10
46231;DHT22;31949;51.404;-0.038;2023-06-26T09:55:41;22.60;94.00
46231;DHT22;31949;51.404;-0.038;2023-06-26T09:58:11;22.80;93.40
46231;DHT22;31949;51.404;-0.038;2023-06-26T10:00:42;22.60;93.30
46231;DHT22;31949;51.404;-0.038;2023-06-26T10:03:10;22.70;92.30
46231;DHT22;31949;51.404;-0.038;2023-06-26T10:05:40;22.50;93.00
46231;DHT22;31949;51.404;-0.038;2023-06-26T10:08:08;22.70;93.00
46231;DHT22;31949;51.404;-0.038;2023-06-26T10:10:36;23.00;93.10
46231;DHT22;31949;51.404;-0.038;2023-06-26T10:13:13;23.10;92.60
46231;DHT22;31949;51.404;-0.038;2023-06-26T10:15:44;23.10;91.80
46231;DHT22;31949;51.404;-0.038;2023-06-26T10:18:15;23.00;92.80
46231;DHT22;31949;51.404;-0.038;2023-06-26T10:20:48;22.90;92.30
46231;DHT22;31949;51.404;-0.038;2023-06-26T10:23:16;23.00;92.00
46231;DHT22;31949;51.404;-0.038;2023-06-26T10:25:48;22.90;91.40
46231;DHT22;31949;51.404;-0.038;2023-06-26T10:28:16;22.80;90.80
46231;DHT22;31949;51.404;-0.038;2023-06-26T10:30:44;22.80;91.80
46231;DHT22;31949;51.404;-0.038;2023-06-26T10:33:13;22.70;91.50
46231;DHT22;31949;51.404;-0.038;2023-06-26T10:35:45;22.60;91.90
46231;DHT22;31949;51.404;-0.038;2023-06-26T10:38:12;22.60;91.80
46231;DHT22;31949;51.404;-0.038;2023-06-26T10:40:47;22.60;91.90
46231;DHT22;31949;51.404;-0.038;2023-06-26T10:43:16;22.70;92.10
46231;DHT22;31949;51.404;-0.038;2023-06-26T10:45:45;22.70;91.80
46231;DHT22;31949;51.404;-0.038;2023-06-26T10:48:14;22.60;91.80
46231;DHT22;31949;51.404;-0.038;2023-06-26T10:50:42;22.50;92.00
46231;DHT22;31949;51.404;-0.038;2023-06-26T10:55:44;22.60;91.60
46231;DHT22;31949;51.404;-0.038;2023-06-26T11:01:25;22.70;91.20
46231;DHT22;31949;51.404;-0.038;2023-06-26T11:06:30;22.80;90.80
46231;DHT22;31949;51.404;-0.038;2023-06-26T11:14:25;23.00;91.80
46231;DHT22;31949;51.404;-0.038;2023-06-26T11:16:52;23.20;91.90
46231;DHT22;31949;51.404;-0.038;2023-06-26T11:19:22;23.50;91.70
46231;DHT22;31949;51.404;-0.038;2023-06-26T11:21:50;23.60;91.40
46231;DHT22;31949;51.404;-0.038;2023-06-26T11:24:18;23.80;91.50
46231;DHT22;31949;51.404;-0.038;2023-06-26T11:26:45;23.90;91.00
46231;DHT22;31949;51.404;-0.038;2023-06-26T11:29:13;24.00;90.00
46231;DHT22;31949;51.404;-0.038;2023-06-26T11:31:41;24.00;90.40
46231;DHT22;31949;51.404;-0.038;2023-06-26T11:34:11;23.90;89.00
46231;DHT22;31949;51.404;-0.038;2023-06-26T11:36:40;23.70;89.30
46231;DHT22;31949;51.404;-0.038;2023-06-26T11:39:10;23.60;88.80
46231;DHT22;31949;51.404;-0.038;2023-06-26T11:41:39;23.60;89.60
46231;DHT22;31949;51.404;-0.038;2023-06-26T11:44:10;23.70;87.00
46231;DHT22;31949;51.404;-0.038;2023-06-26T11:46:37;23.70;86.50
46231;DHT22;31949;51.404;-0.038;2023-06-26T11:49:06;23.70;88.00
46231;DHT22;31949;51.404;-0.038;2023-06-26T11:51:35;23.90;89.00
46231;DHT22;31949;51.404;-0.038;2023-06-26T11:54:05;24.00;87.60
46231;DHT22;31949;51.404;-0.038;2023-06-26T11:56:32;23.70;88.40
46231;DHT22;31949;51.404;-0.038;2023-06-26T11:59:11;23.90;88.60
46231;DHT22;31949;51.404;-0.038;2023-06-26T12:01:39;23.90;88.50
46231;DHT22;31949;51.404;-0.038;2023-06-26T12:04:09;23.80;89.40
46231;DHT22;31949;51.404;-0.038;2023-06-26T12:06:39;23.70;90.30
46231;DHT22;31949;51.404;-0.038;2023-06-26T12:09:09;23.80;89.50
46231;DHT22;31949;51.404;-0.038;2023-06-26T12:11:42;23.90;90.70
46231;DHT22;31949;51.404;-0.038;2023-06-26T12:14:10;23.70;90.40
46231;DHT22;31949;51.404;-0.038;2023-06-26T12:16:39;23.60;89.50
46231;DHT22;31949;51.404;-0.038;2023-06-26T12:19:08;23.50;88.60
46231;DHT22;31949;51.404;-0.038;2023-06-26T12:24:14;23.50;89.30
46231;DHT22;31949;51.404;-0.038;2023-06-26T12:26:46;23.60;90.50
46231;DHT22;31949;51.404;-0.038;2023-06-26T12:29:16;23.60;88.20
46231;DHT22;31949;51.404;-0.038;2023-06-26T12:31:50;23.60;87.20
46231;DHT22;31949;51.404;-0.038;2023-06-26T12:34:26;23.80;90.10
46231;DHT22;31949;51.404;-0.038;2023-06-26T12:36:58;23.90;86.90
46231;DHT22;31949;51.404;-0.038;2023-06-26T12:39:26;23.90;87.50
46231;DHT22;31949;51.404;-0.038;2023-06-26T12:42:00;23.90;87.60
46231;DHT22;31949;51.404;-0.038;2023-06-26T12:44:31;24.10;87.00
46231;DHT22;31949;51.404;-0.038;2023-06-26T12:47:01;24.20;85.90
46231;DHT22;31949;51.404;-0.038;2023-06-26T12:49:30;24.20;87.40
46231;DHT22;31949;51.404;-0.038;2023-06-26T12:51:59;24.30;85.50
46231;DHT22;31949;51.404;-0.038;2023-06-26T12:54:28;24.10;84.50
46231;DHT22;31949;51.404;-0.038;2023-06-26T12:56:56;23.90;84.50
46231;DHT22;31949;51.404;-0.038;2023-06-26T12:59:23;23.90;85.70
46231;DHT22;31949;51.404;-0.038;2023-06-26T13:01:51;23.80;87.30
46231;DHT22;31949;51.404;-0.038;2023-06-26T13:04:18;23.70;85.30
46231;DHT22;31949;51.404;-0.038;2023-06-26T13:06:46;23.80;85.60
46231;DHT22;31949;51.404;-0.038;2023-06-26T13:09:13;23.80;86.50
46231;DHT22;31949;51.404;-0.038;2023-06-26T13:11:40;23.70;86.30
46231;DHT22;31949;51.404;-0.038;2023-06-26T13:14:07;23.80;86.10
46231;DHT22;31949;51.404;-0.038;2023-06-26T13:16:38;23.80;87.00
46231;DHT22;31949;51.404;-0.038;2023-06-26T13:19:06;23.90;85.60
46231;DHT22;31949;51.404;-0.038;2023-06-26T13:21:34;24.10;86.70
46231;DHT22;31949;51.404;-0.038;2023-06-26T13:24:01;24.20;87.30
46231;DHT22;31949;51.404;-0.038;2023-06-26T13:26:30;24.10;87.80
46231;DHT22;31949;51.404;-0.038;2023-06-26T13:29:02;24.00;87.70
46231;DHT22;31949;51.404;-0.038;2023-06-26T13:31:30;24.00;86.40
46231;DHT22;31949;51.404;-0.038;2023-06-26T13:33:58;24.00;87.70
46231;DHT22;31949;51.404;-0.038;2023-06-26T13:36:26;24.10;87.60
46231;DHT22;31949;51.404;-0.038;2023-06-26T13:38:54;24.30;87.20
46231;DHT22;31949;51.404;-0.038;2023-06-26T13:41:25;24.40;87.80
46231;DHT22;31949;51.404;-0.038;2023-06-26T13:43:52;24.50;87.60
46231;DHT22;31949;51.404;-0.038;2023-06-26T13:46:30;24.50;87.40
46231;DHT22;31949;51.404;-0.038;2023-06-26T13:48:57;24.50;87.00
46231;DHT22;31949;51.404;-0.038;2023-06-26T13:51:25;24.50;87.60
46231;DHT22;31949;51.404;-0.038;2023-06-26T13:53:52;24.50;86.80
46231;DHT22;31949;51.404;-0.038;2023-06-26T13:56:19;24.40;86.90
46231;DHT22;31949;51.404;-0.038;2023-06-26T13:58:46;24.40;87.50
46231;DHT22;31949;51.404;-0.038;2023-06-26T14:01:14;24.40;87.70
46231;DHT22;31949;51.404;-0.038;2023-06-26T14:03:41;24.30;88.10
46231;DHT22;31949;51.404;-0.038;2023-06-26T14:06:08;24.40;88.70
46231;DHT22;31949;51.404;-0.038;2023-06-26T14:08:35;24.30;88.00
46231;DHT22;31949;51.404;-0.038;2023-06-26T14:11:03;23.90;89.40
46231;DHT22;31949;51.404;-0.038;2023-06-26T14:13:30;24.10;88.30
46231;DHT22;31949;51.404;-0.038;2023-06-26T14:15:57;24.00;88.30
46231;DHT22;31949;51.404;-0.038;2023-06-26T14:18:24;23.80;88.60
46231;DHT22;31949;51.404;-0.038;2023-06-26T14:20:52;23.80;88.90
46231;DHT22;31949;51.404;-0.038;2023-06-26T14:23:20;23.60;88.70
46231;DHT22;31949;51.404;-0.038;2023-06-26T14:25:47;23.40;90.10
46231;DHT22;31949;51.404;-0.038;2023-06-26T14:28:15;23.50;90.20
46231;DHT22;31949;51.404;-0.038;2023-06-26T14:30:43;23.50;90.20
46231;DHT22;31949;51.404;-0.038;2023-06-26T14:33:10;23.10;90.10
46231;DHT22;31949;51.404;-0.038;2023-06-26T14:35:38;23.20;90.00
46231;DHT22;31949;51.404;-0.038;2023-06-26T14:38:05;23.10;90.30
46231;DHT22;31949;51.404;-0.038;2023-06-26T14:40:32;23.20;90.20
46231;DHT22;31949;51.404;-0.038;2023-06-26T14:43:00;23.10;89.50
46231;DHT22;31949;51.404;-0.038;2023-06-26T14:45:41;23.40;90.20
46231;DHT22;31949;51.404;-0.038;2023-06-26T14:48:13;23.50;89.90
46231;DHT22;31949;51.404;-0.038;2023-06-26T14:50:41;23.50;89.80
46231;DHT22;31949;51.404;-0.038;2023-06-26T14:53:11;23.50;89.40
46231;DHT22;31949;51.404;-0.038;2023-06-26T14:55:38;23.20;90.00
46231;DHT22;31949;51.404;-0.038;2023-06-26T14:58:06;23.10;90.20
46231;DHT22;31949;51.404;-0.038;2023-06-26T15:00:33;23.30;90.00
46231;DHT22;31949;51.404;-0.038;2023-06-26T15:03:00;23.30;90.40
46231;DHT22;31949;51.404;-0.038;2023-06-26T15:05:28;23.40;90.50
46231;DHT22;31949;51.404;-0.038;2023-06-26T15:07:55;23.50;90.30
46231;DHT22;31949;51.404;-0.038;2023-06-26T15:10:22;23.50;90.10
46231;DHT22;31949;51.404;-0.038;2023-06-26T15:12:53;23.30;90.00
46231;DHT22;31949;51.404;-0.038;2023-06-26T15:15:20;23.20;89.80
46231;DHT22;31949;51.404;-0.038;2023-06-26T15:17:48;23.30;90.30
46231;DHT22;31949;51.404;-0.038;2023-06-26T15:20:15;23.30;90.20
46231;DHT22;31949;51.404;-0.038;2023-06-26T15:22:42;23.20;90.50
46231;DHT22;31949;51.404;-0.038;2023-06-26T15:25:09;23.40;90.60
46231;DHT22;31949;51.404;-0.038;2023-06-26T15:27:37;23.40;90.40
46231;DHT22;31949;51.404;-0.038;2023-06-26T15:30:05;23.50;90.20
46231;DHT22;31949;51.404;-0.038;2023-06-26T15:32:33;23.40;89.80
46231;DHT22;31949;51.404;-0.038;2023-06-26T15:35:00;23.50;90.10
46231;DHT22;31949;51.404;-0.038;2023-06-26T15:37:28;23.40;90.20
46231;DHT22;31949;51.404;-0.038;2023-06-26T15:39:55;23.40;90.30
46231;DHT22;31949;51.404;-0.038;2023-06-26T15:42:27;23.40;90.20
46231;DHT22;31949;51.404;-0.038;2023-06-26T15:44:55;23.20;90.20
46231;DHT22;31949;51.404;-0.038;2023-06-26T15:47:22;23.30;90.40
46231;DHT22;31949;51.404;-0.038;2023-06-26T15:49:50;23.30;90.10
46231;DHT22;31949;51.404;-0.038;2023-06-26T15:52:17;23.50;90.20
46231;DHT22;31949;51.404;-0.038;2023-06-26T15:54:44;23.50;89.60